createdAt,value
2018-12-06T00:02:07.626Z,5.40
2018-12-06T00:04:45.151Z,5.40
2018-12-06T00:07:22.712Z,5.40
2018-12-06T00:10:00.232Z,5.40
2018-12-06T00:12:37.788Z,5.40
2018-12-06T00:15:31.051Z,5.40
2018-12-06T00:18:08.578Z,5.40
2018-12-06T00:20:46.114Z,5.40
2018-12-06T00:23:23.627Z,5.40
2018-12-06T00:26:01.185Z,5.40
2018-12-06T00:28:38.706Z,5.40
2018-12-06T00:31:16.270Z,5.40
2018-12-06T00:33:53.802Z,5.50
2018-12-06T00:36:31.349Z,5.50
2018-12-06T00:39:10.189Z,5.40
2018-12-06T00:41:47.733Z,5.40
2018-12-06T00:44:25.254Z,5.50
2018-12-06T00:47:02.796Z,5.50
2018-12-06T00:49:40.298Z,5.40
2018-12-06T00:52:17.843Z,5.40
2018-12-06T00:54:55.366Z,5.40
2018-12-06T00:57:32.928Z,5.40
2018-12-06T01:00:10.614Z,5.40
2018-12-06T01:02:48.179Z,5.40
2018-12-06T01:05:25.704Z,5.40
2018-12-06T01:08:03.271Z,5.40
2018-12-06T01:10:40.804Z,5.50
2018-12-06T01:13:18.346Z,5.40
2018-12-06T01:15:55.879Z,5.40
2018-12-06T01:18:33.643Z,5.40
2018-12-06T01:21:11.196Z,5.40
2018-12-06T01:23:48.719Z,5.40
2018-12-06T01:26:26.256Z,5.40
2018-12-06T01:29:03.774Z,5.40
2018-12-06T01:31:41.354Z,5.40
2018-12-06T01:34:18.860Z,5.40
2018-12-06T01:36:56.481Z,5.50
2018-12-06T01:39:34.005Z,5.50
2018-12-06T01:42:11.551Z,5.50
2018-12-06T01:44:49.077Z,5.50
2018-12-06T01:47:26.613Z,5.50
2018-12-06T01:50:04.146Z,5.50
2018-12-06T01:52:41.709Z,5.50
2018-12-06T01:55:19.231Z,5.50
2018-12-06T01:57:56.818Z,5.50
2018-12-06T02:00:34.327Z,5.50
2018-12-06T02:03:11.880Z,5.50
2018-12-06T02:05:49.411Z,5.40
2018-12-06T02:08:26.975Z,5.40
2018-12-06T02:11:04.819Z,5.30
2018-12-06T02:13:42.383Z,5.30
2018-12-06T02:16:19.936Z,5.20
2018-12-06T02:18:57.472Z,5.20
2018-12-06T02:21:35.014Z,5.20
2018-12-06T02:24:12.532Z,5.20
2018-12-06T02:26:50.071Z,5.10
2018-12-06T02:29:46.203Z,5.10
2018-12-06T02:32:24.048Z,5.20
2018-12-06T02:35:01.609Z,5.10
2018-12-06T02:37:39.140Z,5.10
2018-12-06T02:40:16.678Z,5.10
2018-12-06T02:42:54.217Z,5.10
2018-12-06T02:45:31.795Z,5.10
2018-12-06T02:48:09.387Z,5.10
2018-12-06T02:50:46.903Z,5.10
2018-12-06T02:53:24.534Z,5.10
2018-12-06T02:56:01.958Z,5.10
2018-12-06T02:58:39.499Z,5.10
2018-12-06T03:01:17.012Z,5.10
2018-12-06T03:03:55.318Z,5.10
2018-12-06T03:06:32.735Z,5.10
2018-12-06T03:09:10.531Z,5.10
2018-12-06T03:11:48.056Z,5.00
2018-12-06T03:14:25.593Z,5.10
2018-12-06T03:17:03.156Z,5.00
2018-12-06T03:19:40.683Z,5.00
2018-12-06T03:22:18.225Z,5.00
2018-12-06T03:24:55.762Z,5.00
2018-12-06T03:27:33.384Z,5.00
2018-12-06T03:30:10.893Z,4.90
2018-12-06T03:32:48.435Z,4.90
2018-12-06T03:35:25.957Z,4.80
2018-12-06T03:38:03.523Z,4.80
2018-12-06T03:40:41.034Z,4.80
2018-12-06T03:43:18.587Z,4.90
2018-12-06T03:45:56.145Z,4.90
2018-12-06T03:48:33.666Z,4.90
2018-12-06T03:51:11.204Z,4.90
2018-12-06T03:53:48.757Z,4.90
2018-12-06T03:56:26.281Z,5.00
2018-12-06T03:59:03.826Z,4.90
2018-12-06T04:01:41.359Z,4.90
2018-12-06T04:04:18.914Z,4.90
2018-12-06T04:06:56.477Z,4.80
2018-12-06T04:09:33.983Z,4.80
2018-12-06T04:12:11.528Z,4.80
2018-12-06T04:14:49.053Z,4.80
2018-12-06T04:17:26.605Z,4.80
2018-12-06T04:20:04.130Z,4.80
2018-12-06T04:22:42.063Z,4.80
2018-12-06T04:25:19.616Z,4.80
2018-12-06T04:27:57.184Z,4.70
2018-12-06T04:30:34.672Z,4.60
2018-12-06T04:33:12.232Z,4.60
2018-12-06T04:35:49.751Z,4.50
2018-12-06T04:38:27.298Z,4.50
2018-12-06T04:41:04.832Z,4.50
2018-12-06T04:43:42.384Z,4.50
2018-12-06T04:46:19.892Z,4.50
2018-12-06T04:48:57.453Z,4.40
2018-12-06T04:51:35.010Z,4.40
2018-12-06T04:54:12.579Z,4.30
2018-12-06T04:56:50.121Z,4.20
2018-12-06T04:59:27.661Z,4.20
2018-12-06T05:02:05.549Z,4.20
2018-12-06T05:04:43.099Z,4.20
2018-12-06T05:07:20.638Z,4.30
2018-12-06T05:09:58.180Z,4.30
2018-12-06T05:12:35.718Z,4.30
2018-12-06T05:15:13.275Z,4.30
2018-12-06T05:17:50.815Z,4.30
2018-12-06T05:20:28.354Z,4.30
2018-12-06T05:23:05.914Z,4.30
2018-12-06T05:25:43.452Z,4.40
2018-12-06T05:28:21.043Z,4.40
2018-12-06T05:30:58.652Z,4.50
2018-12-06T05:33:36.210Z,4.50
2018-12-06T05:36:13.756Z,4.60
2018-12-06T05:38:51.356Z,4.70
2018-12-06T05:41:28.899Z,4.70
2018-12-06T05:44:06.449Z,4.80
2018-12-06T05:46:44.007Z,4.90
2018-12-06T05:49:21.570Z,4.90
2018-12-06T05:51:59.103Z,5.00
2018-12-06T05:54:36.677Z,5.10
2018-12-06T05:57:14.211Z,5.10
2018-12-06T05:59:51.791Z,5.20
2018-12-06T06:02:29.311Z,5.30
2018-12-06T06:05:08.023Z,5.40
2018-12-06T06:07:45.542Z,5.50
2018-12-06T06:10:23.104Z,5.50
2018-12-06T06:13:00.638Z,5.60
2018-12-06T06:15:38.188Z,5.60
2018-12-06T06:18:15.732Z,5.70
2018-12-06T06:20:53.271Z,5.70
2018-12-06T06:23:30.859Z,5.70
2018-12-06T06:26:08.409Z,5.80
2018-12-06T06:28:45.951Z,5.80
2018-12-06T06:31:23.482Z,5.80
2018-12-06T06:34:01.045Z,5.80
2018-12-06T06:36:38.594Z,5.80
2018-12-06T06:39:16.237Z,5.80
2018-12-06T06:41:53.792Z,5.80
2018-12-06T06:44:31.335Z,5.80
2018-12-06T06:47:08.856Z,5.80
2018-12-06T06:49:46.429Z,5.80
2018-12-06T06:52:23.966Z,5.80
2018-12-06T06:55:01.511Z,5.80
2018-12-06T06:57:39.053Z,5.80
2018-12-06T07:00:16.593Z,5.80
2018-12-06T07:02:54.133Z,5.90
2018-12-06T07:05:31.701Z,5.90
2018-12-06T07:08:09.236Z,5.90
2018-12-06T07:10:47.327Z,5.90
2018-12-06T07:13:24.339Z,6.00
2018-12-06T07:16:01.877Z,6.00
2018-12-06T07:18:39.434Z,6.00
2018-12-06T07:21:16.961Z,6.10
2018-12-06T07:23:54.578Z,6.10
2018-12-06T07:26:32.067Z,6.10
2018-12-06T07:29:09.605Z,6.20
2018-12-06T07:31:47.162Z,6.20
2018-12-06T07:34:24.765Z,6.30
2018-12-06T07:37:02.292Z,6.40
2018-12-06T07:39:39.872Z,6.50
2018-12-06T07:42:17.415Z,6.50
2018-12-06T07:44:54.964Z,6.50
2018-12-06T07:47:32.474Z,6.50
2018-12-06T07:50:10.241Z,6.50
2018-12-06T07:52:47.768Z,6.50
2018-12-06T07:55:25.350Z,6.50
2018-12-06T07:58:02.884Z,6.50
2018-12-06T08:00:40.460Z,6.50
2018-12-06T08:03:18.007Z,6.60
2018-12-06T08:05:55.606Z,6.60
2018-12-06T08:08:33.247Z,6.80
2018-12-06T08:11:10.811Z,7.00
2018-12-06T08:13:48.345Z,7.10
2018-12-06T08:16:25.890Z,7.20
2018-12-06T08:19:03.411Z,7.20
2018-12-06T08:21:40.951Z,7.20
2018-12-06T08:24:18.520Z,7.30
2018-12-06T08:26:56.035Z,7.40
2018-12-06T08:29:33.588Z,7.50
2018-12-06T08:32:11.148Z,7.60
2018-12-06T08:34:48.681Z,7.70
2018-12-06T08:37:26.198Z,7.80
2018-12-06T08:40:03.759Z,7.90
2018-12-06T08:42:45.582Z,7.90
2018-12-06T08:45:18.814Z,7.90
2018-12-06T08:47:56.342Z,7.90
2018-12-06T08:50:33.914Z,8.00
2018-12-06T08:53:11.453Z,7.90
2018-12-06T08:55:49.004Z,7.90
2018-12-06T08:58:26.862Z,7.80
2018-12-06T09:01:04.413Z,7.70
2018-12-06T09:03:41.942Z,7.80
2018-12-06T09:06:19.503Z,7.90
2018-12-06T09:08:57.023Z,8.10
2018-12-06T09:11:34.602Z,8.20
2018-12-06T09:14:12.120Z,8.20
2018-12-06T09:16:49.720Z,8.20
2018-12-06T09:19:29.688Z,8.10
2018-12-06T09:22:07.235Z,8.10
2018-12-06T09:24:44.772Z,8.00
2018-12-06T09:27:22.295Z,8.00
2018-12-06T09:30:06.329Z,8.10
2018-12-06T09:32:43.868Z,8.30
2018-12-06T09:35:21.442Z,8.60
2018-12-06T09:37:58.949Z,9.00
2018-12-06T09:40:36.527Z,9.30
2018-12-06T09:43:14.048Z,9.40
2018-12-06T09:45:51.638Z,9.40
2018-12-06T09:48:29.164Z,9.40
2018-12-06T09:51:06.731Z,9.30
2018-12-06T09:53:44.265Z,9.30
2018-12-06T09:56:21.861Z,9.30
2018-12-06T09:58:59.406Z,9.30
2018-12-06T10:01:36.982Z,9.30
2018-12-06T10:04:14.516Z,9.40
2018-12-06T10:06:52.058Z,9.40
2018-12-06T10:09:29.593Z,9.50
2018-12-06T10:12:07.160Z,9.60
2018-12-06T10:14:44.689Z,9.70
2018-12-06T10:17:22.262Z,9.80
2018-12-06T10:19:59.770Z,10.00
2018-12-06T10:22:37.305Z,10.10
2018-12-06T10:25:14.854Z,10.10
2018-12-06T10:27:52.393Z,10.20
2018-12-06T10:30:29.956Z,10.20
2018-12-06T10:33:07.468Z,10.10
2018-12-06T10:35:45.012Z,10.10
2018-12-06T10:38:22.550Z,10.10
2018-12-06T10:41:00.133Z,10.00
2018-12-06T10:43:37.669Z,9.90
2018-12-06T10:46:15.205Z,9.90
2018-12-06T10:48:52.892Z,9.90
2018-12-06T10:51:47.406Z,9.90
2018-12-06T10:54:24.940Z,10.00
2018-12-06T10:57:02.496Z,10.00
2018-12-06T10:59:40.014Z,10.00
2018-12-06T11:02:49.291Z,10.00
2018-12-06T11:05:26.820Z,10.00
2018-12-06T11:08:04.367Z,10.10
2018-12-06T11:10:41.948Z,10.10
2018-12-06T11:13:19.470Z,10.20
2018-12-06T11:15:57.028Z,10.20
2018-12-06T11:18:34.551Z,10.20
2018-12-06T11:21:12.107Z,10.20
2018-12-06T11:23:49.695Z,10.30
2018-12-06T11:26:27.244Z,10.30
2018-12-06T11:29:04.760Z,10.40
2018-12-06T11:31:42.317Z,10.40
2018-12-06T11:34:19.863Z,10.40
2018-12-06T11:36:57.409Z,10.30
2018-12-06T11:39:34.958Z,10.40
2018-12-06T11:42:12.526Z,10.50
2018-12-06T11:44:50.089Z,10.60
2018-12-06T11:47:27.630Z,10.70
2018-12-06T11:50:05.189Z,10.80
2018-12-06T11:52:42.808Z,10.80
2018-12-06T11:55:20.372Z,10.90
2018-12-06T11:57:57.892Z,10.90
2018-12-06T12:00:35.410Z,11.00
2018-12-06T12:03:12.960Z,11.00
2018-12-06T12:05:50.513Z,11.00
2018-12-06T12:08:28.056Z,11.00
2018-12-06T12:11:05.607Z,11.00
2018-12-06T12:13:43.135Z,11.10
2018-12-06T12:16:20.691Z,11.10
2018-12-06T12:18:58.224Z,11.10
2018-12-06T12:21:35.762Z,11.20
2018-12-06T12:24:13.296Z,11.20
2018-12-06T12:26:50.859Z,11.30
2018-12-06T12:29:31.368Z,11.40
2018-12-06T12:32:08.932Z,11.40
2018-12-06T12:34:46.463Z,11.30
2018-12-06T12:37:24.018Z,11.30
2018-12-06T12:40:01.562Z,11.30
2018-12-06T12:42:39.128Z,11.20
2018-12-06T12:45:16.676Z,11.20
2018-12-06T12:47:54.240Z,11.20
2018-12-06T12:50:31.778Z,11.30
2018-12-06T12:53:09.311Z,11.20
2018-12-06T12:55:46.841Z,11.20
2018-12-06T12:58:25.257Z,11.20
2018-12-06T13:01:01.931Z,11.10
2018-12-06T13:03:39.501Z,11.10
2018-12-06T13:06:17.036Z,11.10
2018-12-06T13:08:54.573Z,11.00
2018-12-06T13:11:32.171Z,11.00
2018-12-06T13:14:09.697Z,11.00
2018-12-06T13:16:47.242Z,11.00
2018-12-06T13:19:24.782Z,10.90
2018-12-06T13:22:02.349Z,10.90
2018-12-06T13:24:39.861Z,11.00
2018-12-06T13:27:17.433Z,11.00
2018-12-06T13:29:54.964Z,11.00
2018-12-06T13:32:32.509Z,11.00
2018-12-06T13:35:10.039Z,11.00
2018-12-06T13:37:47.584Z,11.10
2018-12-06T13:40:25.094Z,11.10
2018-12-06T13:43:02.638Z,11.00
2018-12-06T13:45:40.170Z,11.00
2018-12-06T13:48:17.726Z,10.90
2018-12-06T13:50:55.245Z,10.90
2018-12-06T13:53:32.799Z,10.90
2018-12-06T13:56:10.354Z,10.90
2018-12-06T13:58:47.933Z,10.90
2018-12-06T14:01:25.719Z,10.90
2018-12-06T14:04:03.140Z,10.90
2018-12-06T14:06:40.648Z,10.90
2018-12-06T14:09:18.204Z,10.90
2018-12-06T14:11:55.761Z,10.90
2018-12-06T14:14:33.297Z,10.90
2018-12-06T14:17:10.865Z,10.90
2018-12-06T14:19:48.393Z,10.90
2018-12-06T14:22:25.999Z,10.80
2018-12-06T14:25:03.530Z,10.80
2018-12-06T14:27:41.073Z,10.80
2018-12-06T14:30:18.620Z,10.80
2018-12-06T14:32:56.177Z,10.90
2018-12-06T14:35:33.703Z,10.80
2018-12-06T14:38:11.246Z,10.80
2018-12-06T14:40:48.788Z,10.80
2018-12-06T14:43:26.360Z,10.80
2018-12-06T14:46:03.896Z,10.80
2018-12-06T14:48:41.454Z,10.80
2018-12-06T14:51:18.986Z,10.80
2018-12-06T14:53:56.571Z,10.70
2018-12-06T14:56:34.102Z,10.70
2018-12-06T14:59:11.653Z,10.70
2018-12-06T15:01:49.169Z,10.70
2018-12-06T15:04:26.729Z,10.80
2018-12-06T15:07:04.266Z,10.80
2018-12-06T15:09:41.915Z,10.80
2018-12-06T15:12:19.476Z,10.90
2018-12-06T15:14:57.034Z,10.90
2018-12-06T15:17:34.571Z,10.90
2018-12-06T15:20:12.096Z,10.90
2018-12-06T15:22:49.624Z,10.90
2018-12-06T15:25:27.155Z,10.90
2018-12-06T15:28:04.718Z,10.90
2018-12-06T15:30:42.252Z,10.90
2018-12-06T15:33:19.809Z,10.90
2018-12-06T15:35:57.317Z,10.90
2018-12-06T15:38:35.345Z,10.90
2018-12-06T15:41:12.862Z,10.80
2018-12-06T15:43:50.409Z,10.80
2018-12-06T15:46:27.925Z,10.80
2018-12-06T15:49:05.477Z,10.80
2018-12-06T15:51:43.017Z,10.70
2018-12-06T15:54:20.560Z,10.70
2018-12-06T15:56:58.088Z,10.70
2018-12-06T15:59:35.641Z,10.70
2018-12-06T16:02:13.163Z,10.70
2018-12-06T16:04:50.745Z,10.70
2018-12-06T16:07:28.255Z,10.60
2018-12-06T16:10:06.178Z,10.70
2018-12-06T16:12:43.706Z,10.60
2018-12-06T16:15:21.262Z,10.60
2018-12-06T16:17:58.816Z,10.60
2018-12-06T16:20:36.348Z,10.60
2018-12-06T16:23:13.887Z,10.60
2018-12-06T16:25:51.414Z,10.60
2018-12-06T16:28:28.978Z,10.50
2018-12-06T16:31:06.505Z,10.50
2018-12-06T16:33:44.066Z,10.40
2018-12-06T16:36:21.760Z,10.50
2018-12-06T16:38:59.315Z,10.40
2018-12-06T16:41:36.846Z,10.40
2018-12-06T16:44:15.217Z,10.40
2018-12-06T16:46:52.727Z,10.40
2018-12-06T16:49:30.334Z,10.50
2018-12-06T16:52:07.837Z,10.40
2018-12-06T16:54:45.508Z,10.50
2018-12-06T16:57:23.053Z,10.50
2018-12-06T17:00:00.680Z,10.60
2018-12-06T17:02:38.185Z,10.60
2018-12-06T17:05:15.882Z,10.60
2018-12-06T17:07:54.041Z,10.60
2018-12-06T17:10:32.087Z,10.60
2018-12-06T17:13:10.229Z,10.60
2018-12-06T17:15:48.364Z,10.60
2018-12-06T17:18:26.353Z,10.60
2018-12-06T17:21:05.028Z,10.60
2018-12-06T17:23:42.899Z,10.60
2018-12-06T17:26:20.428Z,10.60
2018-12-06T17:28:57.996Z,10.70
2018-12-06T17:31:37.068Z,10.70
2018-12-06T17:34:15.087Z,10.70
2018-12-06T17:36:53.311Z,10.70
2018-12-06T17:39:32.045Z,10.70
2018-12-06T17:42:09.950Z,10.70
2018-12-06T17:44:48.521Z,10.70
2018-12-06T17:47:26.840Z,10.70
2018-12-06T17:50:04.964Z,10.60
2018-12-06T17:52:42.765Z,10.70
2018-12-06T17:55:21.690Z,10.70
2018-12-06T17:58:00.217Z,10.70
2018-12-06T18:00:37.796Z,10.60
2018-12-06T18:03:17.229Z,10.60
2018-12-06T18:05:54.983Z,10.70
2018-12-06T18:08:32.561Z,10.70
2018-12-06T18:11:13.665Z,10.80
2018-12-06T18:13:52.259Z,10.80
2018-12-06T18:16:32.221Z,10.80
2018-12-06T18:19:09.749Z,10.90
2018-12-06T18:21:49.617Z,10.90
2018-12-06T18:24:27.753Z,10.90
2018-12-06T18:27:08.944Z,10.90
2018-12-06T18:29:50.343Z,10.90
2018-12-06T18:32:29.149Z,10.90
2018-12-06T18:35:07.530Z,11.00
2018-12-06T18:37:46.987Z,11.00
2018-12-06T18:40:25.558Z,11.00
2018-12-06T18:43:03.749Z,11.00
2018-12-06T18:45:42.885Z,11.10
2018-12-06T18:48:20.476Z,11.10
2018-12-06T18:50:58.025Z,11.10
2018-12-06T18:53:41.745Z,11.10
2018-12-06T18:56:20.971Z,11.10
2018-12-06T18:58:59.003Z,11.10
2018-12-06T19:01:37.018Z,11.20
2018-12-06T19:04:15.543Z,11.20
2018-12-06T19:06:53.524Z,11.20
2018-12-06T19:09:31.308Z,11.20
2018-12-06T19:12:08.814Z,11.20
2018-12-06T19:14:46.948Z,11.20
2018-12-06T19:17:25.231Z,11.20
2018-12-06T19:20:02.913Z,11.20
2018-12-06T19:22:42.946Z,11.20
2018-12-06T19:25:21.673Z,11.20
2018-12-06T19:27:59.848Z,11.20
2018-12-06T19:30:38.344Z,11.20
2018-12-06T19:33:16.753Z,11.20
2018-12-06T19:35:55.003Z,11.20
2018-12-06T19:38:32.640Z,11.20
2018-12-06T19:41:11.228Z,11.20
2018-12-06T19:43:49.419Z,11.20
2018-12-06T19:46:27.971Z,11.10
2018-12-06T19:49:06.428Z,11.10
2018-12-06T19:51:45.350Z,11.10
2018-12-06T19:54:23.592Z,11.10
2018-12-06T19:57:03.896Z,11.10
2018-12-06T19:59:42.890Z,11.10
2018-12-06T20:02:21.353Z,11.10
2018-12-06T20:05:00.016Z,11.10
2018-12-06T20:07:38.281Z,11.10
2018-12-06T20:10:15.838Z,11.10
2018-12-06T20:12:54.434Z,11.10
2018-12-06T20:15:33.008Z,11.10
2018-12-06T20:18:13.043Z,11.10
2018-12-06T20:20:50.811Z,11.20
2018-12-06T20:23:28.502Z,11.20
2018-12-06T20:26:06.169Z,11.20
2018-12-06T20:28:43.760Z,11.20
2018-12-06T20:31:21.336Z,11.20
2018-12-06T20:33:58.971Z,11.20
2018-12-06T20:36:36.613Z,11.10
2018-12-06T20:39:14.153Z,11.10
2018-12-06T20:41:51.750Z,11.00
2018-12-06T20:44:29.275Z,10.90
2018-12-06T20:47:06.829Z,10.90
2018-12-06T20:49:44.472Z,10.90
2018-12-06T20:52:22.049Z,10.90
2018-12-06T20:54:59.630Z,10.80
2018-12-06T20:57:37.709Z,10.90
2018-12-06T21:00:14.743Z,10.80
2018-12-06T21:02:52.310Z,10.90
2018-12-06T21:05:29.870Z,10.90
2018-12-06T21:08:07.457Z,11.00
2018-12-06T21:10:45.102Z,11.10
2018-12-06T21:13:22.667Z,11.20
2018-12-06T21:16:00.272Z,11.30
2018-12-06T21:18:37.861Z,11.40
2018-12-06T21:21:15.466Z,11.40
2018-12-06T21:23:53.015Z,11.40
2018-12-06T21:26:30.594Z,11.50
2018-12-06T21:29:08.139Z,11.50
2018-12-06T21:31:45.736Z,11.50
2018-12-06T21:34:23.379Z,11.40
2018-12-06T21:37:00.922Z,11.40
2018-12-06T21:39:38.456Z,11.40
2018-12-06T21:42:16.008Z,11.40
2018-12-06T21:44:53.541Z,11.50
2018-12-06T21:47:31.076Z,11.50
2018-12-06T21:50:10.054Z,11.60
2018-12-06T21:52:47.630Z,11.60
2018-12-06T21:55:25.159Z,11.60
2018-12-06T21:58:02.729Z,11.60
2018-12-06T22:00:40.283Z,11.70
2018-12-06T22:03:17.811Z,11.70
2018-12-06T22:05:55.355Z,11.70
2018-12-06T22:08:32.857Z,11.80
2018-12-06T22:11:10.393Z,11.80
2018-12-06T22:13:47.940Z,11.80
2018-12-06T22:16:25.520Z,11.80
2018-12-06T22:19:03.037Z,11.80
2018-12-06T22:21:40.602Z,11.70
2018-12-06T22:24:18.140Z,11.80
2018-12-06T22:26:55.701Z,11.80
2018-12-06T22:29:33.215Z,11.80
2018-12-06T22:32:10.751Z,11.80
2018-12-06T22:34:52.525Z,11.70
2018-12-06T22:37:30.099Z,11.80
2018-12-06T22:40:08.212Z,11.80
2018-12-06T22:42:45.758Z,11.80
2018-12-06T22:46:02.222Z,11.90
2018-12-06T22:48:39.773Z,11.90
2018-12-06T22:51:24.237Z,11.90
2018-12-06T22:53:54.811Z,12.00
2018-12-06T22:56:32.390Z,12.00
2018-12-06T22:59:09.918Z,12.10
2018-12-06T23:01:47.459Z,12.10
2018-12-06T23:04:24.973Z,12.10
2018-12-06T23:07:02.514Z,12.20
2018-12-06T23:09:40.031Z,12.20
2018-12-06T23:12:17.571Z,12.20
2018-12-06T23:14:55.098Z,12.20
2018-12-06T23:17:32.650Z,12.20
2018-12-06T23:20:10.180Z,12.20
2018-12-06T23:22:47.751Z,12.20
2018-12-06T23:25:25.283Z,12.20
2018-12-06T23:28:02.830Z,12.20
2018-12-06T23:30:40.362Z,12.20
2018-12-06T23:33:17.900Z,12.20
2018-12-06T23:35:55.432Z,12.20
2018-12-06T23:38:32.970Z,12.20
2018-12-06T23:41:10.473Z,12.30
2018-12-06T23:43:48.021Z,12.30
2018-12-06T23:46:25.555Z,12.30
2018-12-06T23:49:03.096Z,12.30
2018-12-06T23:51:43.732Z,12.30
2018-12-06T23:54:21.253Z,12.30
2018-12-06T23:56:58.826Z,12.20
2018-12-06T23:59:36.348Z,12.30
